createdAt,value
2022-12-18T00:04:37.546Z,7.37
2022-12-18T00:09:40.655Z,7.10
2022-12-18T00:14:44.224Z,7.00
2022-12-18T00:19:46.381Z,7.30
2022-12-18T00:24:48.546Z,7.03
2022-12-18T00:29:52.128Z,7.15
2022-12-18T00:34:54.206Z,6.47
2022-12-18T00:39:56.360Z,7.10
2022-12-18T00:44:59.814Z,7.05
2022-12-18T00:50:02.221Z,8.18
2022-12-18T00:55:06.486Z,6.82
2022-12-18T01:00:13.001Z,7.28
2022-12-18T01:05:16.041Z,6.73
2022-12-18T01:10:18.130Z,6.93
2022-12-18T01:15:21.867Z,7.77
2022-12-18T01:20:23.951Z,7.40
2022-12-18T01:25:26.176Z,9.10
2022-12-18T01:30:29.653Z,9.80
2022-12-18T01:35:31.751Z,10.40
2022-12-18T01:40:33.876Z,11.63
2022-12-18T01:45:37.483Z,11.90
2022-12-18T01:50:42.288Z,12.00
2022-12-18T01:55:47.458Z,13.03
2022-12-18T02:00:51.030Z,13.23
2022-12-18T02:06:00.239Z,13.23
2022-12-18T02:11:09.438Z,13.80
2022-12-18T02:16:23.693Z,13.60
2022-12-18T02:21:33.591Z,13.90
2022-12-18T02:26:40.191Z,15.90
2022-12-18T02:31:47.259Z,15.37
2022-12-18T02:36:51.938Z,14.87
2022-12-18T02:41:55.472Z,15.03
2022-12-18T02:46:57.597Z,15.03
2022-12-18T02:52:07.666Z,15.60
2022-12-18T02:57:18.614Z,14.10
2022-12-18T03:02:25.701Z,14.30
2022-12-18T03:07:36.494Z,14.27
2022-12-18T03:12:44.825Z,14.70
2022-12-18T03:17:53.038Z,16.60
2022-12-18T03:23:02.139Z,15.23
2022-12-18T03:28:09.532Z,15.40
2022-12-18T03:33:18.795Z,16.17
2022-12-18T03:38:21.489Z,16.07
2022-12-18T03:43:37.010Z,14.50
2022-12-18T03:48:44.026Z,15.57
2022-12-18T03:53:52.846Z,15.43
2022-12-18T03:58:58.195Z,15.20
2022-12-18T04:04:02.589Z,16.37
2022-12-18T04:09:04.981Z,14.70
2022-12-18T04:14:09.915Z,15.07
2022-12-18T04:19:14.036Z,16.83
2022-12-18T04:24:16.505Z,16.00
2022-12-18T04:29:19.995Z,15.90
2022-12-18T04:34:22.063Z,14.73
2022-12-18T04:39:24.266Z,15.30
2022-12-18T04:44:28.383Z,15.73
2022-12-18T04:49:30.517Z,17.10
2022-12-18T04:54:32.600Z,17.67
2022-12-18T04:59:36.103Z,15.27
2022-12-18T05:04:38.204Z,16.27
2022-12-18T05:09:40.282Z,17.07
2022-12-18T05:14:43.997Z,16.10
2022-12-18T05:19:46.050Z,15.80
2022-12-18T05:24:48.130Z,16.20
2022-12-18T05:29:52.745Z,15.90
2022-12-18T05:34:54.856Z,16.97
2022-12-18T05:39:57.111Z,19.17
2022-12-18T05:45:00.546Z,19.80
2022-12-18T05:50:02.653Z,19.97
2022-12-18T05:55:05.421Z,17.70
2022-12-18T06:00:10.662Z,18.13
2022-12-18T06:05:12.795Z,18.37
2022-12-18T06:10:14.839Z,18.10
2022-12-18T06:15:18.875Z,20.80
2022-12-18T06:20:21.255Z,21.10
2022-12-18T06:25:23.344Z,18.23
2022-12-18T06:30:26.949Z,20.27
2022-12-18T06:35:29.103Z,20.60
2022-12-18T06:40:31.382Z,19.60
2022-12-18T06:45:34.883Z,17.50
2022-12-18T06:50:37.129Z,17.10
2022-12-18T06:55:39.259Z,18.37
2022-12-18T07:00:43.902Z,19.93
2022-12-18T07:05:46.489Z,20.77
2022-12-18T07:10:54.397Z,19.67
2022-12-18T07:16:08.600Z,20.07
2022-12-18T07:21:17.023Z,20.87
2022-12-18T07:26:21.462Z,21.77
2022-12-18T07:31:25.412Z,20.63
2022-12-18T07:36:27.877Z,21.27
2022-12-18T07:41:29.991Z,21.47
2022-12-18T07:46:33.420Z,21.90
2022-12-18T07:51:35.502Z,20.90
2022-12-18T07:56:37.597Z,21.97
2022-12-18T08:01:41.531Z,21.10
2022-12-18T08:06:47.993Z,21.93
2022-12-18T08:11:50.575Z,21.77
2022-12-18T08:16:54.109Z,22.93
2022-12-18T08:21:56.263Z,22.77
2022-12-18T08:27:28.003Z,23.07
2022-12-18T08:32:22.533Z,21.57
2022-12-18T08:37:24.924Z,24.13
2022-12-18T08:42:44.365Z,22.75
2022-12-18T08:47:47.847Z,23.90
2022-12-18T08:52:49.955Z,22.10
2022-12-18T08:57:52.021Z,20.17
2022-12-18T09:02:55.504Z,23.30
2022-12-18T09:07:57.669Z,21.50
2022-12-18T09:12:59.773Z,23.25
2022-12-18T09:18:05.109Z,24.73
2022-12-18T09:23:08.148Z,23.92
2022-12-18T09:28:14.321Z,24.58
2022-12-18T09:33:18.362Z,25.27
2022-12-18T09:38:21.951Z,25.02
2022-12-18T09:43:31.005Z,30.75
2022-12-18T09:48:38.526Z,25.73
2022-12-18T09:53:43.742Z,25.52
2022-12-18T09:58:49.990Z,25.88
2022-12-18T10:03:54.857Z,25.27
2022-12-18T10:09:01.516Z,26.33
2022-12-18T10:14:10.274Z,25.77
2022-12-18T10:19:27.439Z,25.35
2022-12-18T10:24:37.545Z,24.08
2022-12-18T10:29:40.196Z,23.75
2022-12-18T10:34:47.893Z,24.17
2022-12-18T10:40:16.666Z,24.55
2022-12-18T10:45:22.612Z,24.55
2022-12-18T10:50:53.943Z,23.65
2022-12-18T10:55:55.762Z,25.20
2022-12-18T11:01:07.395Z,24.52
2022-12-18T11:06:13.603Z,23.25
2022-12-18T11:11:22.870Z,24.80
2022-12-18T11:16:25.196Z,23.40
2022-12-18T11:21:28.720Z,24.08
2022-12-18T11:26:37.291Z,22.88
2022-12-18T11:31:41.849Z,24.23
2022-12-18T11:36:47.503Z,24.20
2022-12-18T11:42:13.188Z,23.48
2022-12-18T11:47:23.891Z,23.17
2022-12-18T11:52:32.909Z,23.98
2022-12-18T11:57:42.247Z,25.52
2022-12-18T12:03:02.144Z,25.08
2022-12-18T12:08:13.799Z,25.42
2022-12-18T12:13:32.565Z,26.33
2022-12-18T12:18:46.029Z,26.35
2022-12-18T12:23:56.183Z,25.95
2022-12-18T12:29:21.402Z,25.75
2022-12-18T12:34:28.822Z,25.67
2022-12-18T12:39:36.557Z,24.35
2022-12-18T12:44:48.114Z,24.08
2022-12-18T12:49:53.984Z,23.95
2022-12-18T12:54:58.900Z,23.30
2022-12-18T13:00:07.303Z,24.48
2022-12-18T13:05:18.992Z,25.05
2022-12-18T13:10:36.103Z,25.63
2022-12-18T13:15:44.202Z,25.25
2022-12-18T13:20:53.094Z,25.90
2022-12-18T13:25:59.322Z,25.40
2022-12-18T13:31:02.290Z,26.80
2022-12-18T13:36:11.700Z,27.33
2022-12-18T13:41:30.159Z,26.05
2022-12-18T13:46:44.097Z,25.70
2022-12-18T13:51:49.954Z,26.55
2022-12-18T13:56:54.447Z,27.23
2022-12-18T14:01:59.122Z,25.77
2022-12-18T14:07:06.249Z,25.77
2022-12-18T14:12:35.448Z,27.50
2022-12-18T14:17:38.926Z,27.65
2022-12-18T14:22:45.838Z,26.85
2022-12-18T14:27:52.663Z,27.08
2022-12-18T14:33:03.348Z,27.88
2022-12-18T14:38:24.388Z,28.35
2022-12-18T14:43:29.293Z,28.27
2022-12-18T14:48:40.627Z,28.80
2022-12-18T14:53:50.452Z,29.42
2022-12-18T14:58:58.171Z,29.27
2022-12-18T15:04:02.093Z,31.23
2022-12-18T15:09:07.793Z,29.55
2022-12-18T15:14:36.291Z,30.08
2022-12-18T15:19:43.382Z,29.42
2022-12-18T15:24:46.903Z,30.70
2022-12-18T15:30:23.231Z,31.85
2022-12-18T15:35:27.502Z,31.05
2022-12-18T15:40:30.093Z,31.85
2022-12-18T15:45:34.285Z,32.08
2022-12-18T15:56:03.280Z,30.63
2022-12-18T16:01:12.220Z,31.38
2022-12-18T16:06:15.180Z,31.58
2022-12-18T16:16:54.679Z,31.30
2022-12-18T16:27:18.114Z,32.30
2022-12-18T16:32:24.809Z,31.10
2022-12-18T16:37:31.720Z,32.38
2022-12-18T16:42:37.997Z,30.75
2022-12-18T17:09:13.130Z,30.33
2022-12-18T17:19:39.167Z,28.92
2022-12-18T17:24:43.884Z,29.33
2022-12-18T17:29:48.938Z,30.25
2022-12-18T17:34:52.316Z,27.67
2022-12-18T17:50:29.229Z,29.33
2022-12-18T17:55:38.325Z,28.25
2022-12-18T18:00:42.763Z,28.48
2022-12-18T18:05:48.072Z,28.88
2022-12-18T18:10:52.010Z,29.65
2022-12-18T18:15:59.478Z,29.08
2022-12-18T18:21:10.459Z,30.70
2022-12-18T18:26:14.280Z,31.25
2022-12-18T18:31:18.160Z,31.35
2022-12-18T18:36:24.797Z,30.48
2022-12-18T18:41:30.365Z,31.13
2022-12-18T18:46:36.927Z,31.15
2022-12-18T18:51:42.380Z,32.00
2022-12-18T18:57:18.904Z,24.65
2022-12-18T19:02:08.282Z,21.42
2022-12-18T19:07:22.311Z,21.92
2022-12-18T19:12:53.192Z,21.85
2022-12-18T19:17:56.396Z,22.63
2022-12-18T19:23:01.585Z,23.58
2022-12-18T19:28:05.941Z,22.75
2022-12-18T19:33:41.652Z,24.58
2022-12-18T19:38:36.881Z,25.65
2022-12-18T19:43:41.191Z,26.00
2022-12-18T19:48:46.173Z,25.05
2022-12-18T19:53:56.442Z,24.35
2022-12-18T19:59:02.554Z,24.73
2022-12-18T20:04:06.055Z,26.00
2022-12-18T20:09:12.651Z,25.45
2022-12-18T20:14:23.015Z,25.92
2022-12-18T20:19:26.785Z,26.77
2022-12-18T20:24:33.848Z,27.25
2022-12-18T20:29:37.152Z,24.27
2022-12-18T20:34:41.017Z,25.45
2022-12-18T20:39:46.410Z,25.45
2022-12-18T20:44:48.744Z,26.33
2022-12-18T20:49:51.617Z,27.38
2022-12-18T20:54:55.608Z,26.63
2022-12-18T21:00:00.138Z,27.65
2022-12-18T21:05:03.327Z,27.00
2022-12-18T21:10:08.409Z,28.15
2022-12-18T21:15:11.949Z,28.27
2022-12-18T21:20:17.452Z,28.85
2022-12-18T21:25:22.084Z,29.15
2022-12-18T21:30:24.238Z,28.70
2022-12-18T21:35:26.310Z,29.30
2022-12-18T21:40:32.723Z,29.88
2022-12-18T21:45:37.117Z,29.50
2022-12-18T21:50:42.224Z,29.90
2022-12-18T21:55:45.718Z,30.00
2022-12-18T22:00:48.875Z,29.13
2022-12-18T22:05:59.340Z,30.45
2022-12-18T22:11:14.251Z,30.45
2022-12-18T22:16:18.015Z,29.88
2022-12-18T22:21:28.999Z,29.75
2022-12-18T22:26:39.518Z,31.33
2022-12-18T22:31:42.903Z,29.08
2022-12-18T22:36:46.320Z,29.33
2022-12-18T22:41:50.135Z,29.27
2022-12-18T22:47:06.320Z,28.88
2022-12-18T22:52:10.573Z,28.70
2022-12-18T22:57:14.000Z,30.23
2022-12-18T23:02:17.876Z,27.63
2022-12-18T23:07:20.326Z,28.70
2022-12-18T23:12:23.780Z,29.65
2022-12-18T23:17:26.152Z,28.58
2022-12-18T23:22:30.501Z,27.77
2022-12-18T23:27:33.926Z,28.17
2022-12-18T23:32:37.570Z,27.87
2022-12-18T23:37:58.467Z,27.83
2022-12-18T23:43:02.535Z,27.02
2022-12-18T23:48:04.795Z,27.87
2022-12-18T23:53:07.102Z,27.88
2022-12-18T23:58:18.561Z,24.88
